createdAt,value
2023-02-27T00:07:22.190Z,1.10
2023-02-27T00:11:17.553Z,1.07
2023-02-27T00:15:39.557Z,1.06
2023-02-27T00:20:08.904Z,0.98
2023-02-27T00:24:36.997Z,0.86
2023-02-27T00:33:38.097Z,0.60
2023-02-27T00:55:02.730Z,0.33
2023-02-27T00:59:32.004Z,0.24
2023-02-27T01:04:01.351Z,0.16
2023-02-27T01:08:30.485Z,0.09
2023-02-27T01:12:53.977Z,-0.04
2023-02-27T01:17:23.228Z,-0.23
2023-02-27T01:21:52.715Z,-0.32
2023-02-27T01:26:23.431Z,-0.44
2023-02-27T01:53:25.090Z,-0.46
2023-02-27T01:57:54.398Z,-0.44
2023-02-27T02:16:22.906Z,-0.26
2023-02-27T02:21:00.930Z,-0.27
2023-02-27T02:25:45.197Z,-0.24
2023-02-27T02:56:24.018Z,0.04
2023-02-27T03:01:02.271Z,-0.01
2023-02-27T03:05:32.123Z,-0.01
2023-02-27T03:10:04.108Z,-0.01
2023-02-27T03:14:28.819Z,-0.02
2023-02-27T03:18:55.845Z,-0.02
2023-02-27T03:38:31.338Z,-0.16
2023-02-27T03:42:54.650Z,-0.24
2023-02-27T03:47:26.763Z,-0.37
2023-02-27T03:51:49.359Z,-0.47
2023-02-27T03:56:21.773Z,-0.54
2023-02-27T04:00:52.477Z,-0.58
2023-02-27T04:05:10.356Z,-0.59
2023-02-27T04:27:00.943Z,-0.69
2023-02-27T04:54:39.269Z,-0.56
2023-02-27T04:59:20.370Z,-0.50
2023-02-27T05:03:54.569Z,-0.47
2023-02-27T05:08:22.225Z,-0.46
2023-02-27T05:44:01.327Z,-0.36
2023-02-27T05:48:30.112Z,-0.37
2023-02-27T05:56:14.578Z,-0.21
2023-02-27T06:00:56.177Z,-0.17
2023-02-27T06:05:19.525Z,-0.11
2023-02-27T06:22:03.198Z,-0.02
2023-02-27T06:25:58.494Z,0.04
2023-02-27T06:30:16.122Z,0.12
2023-02-27T06:34:02.741Z,0.20
2023-02-27T06:38:16.128Z,0.28
2023-02-27T06:42:45.047Z,0.33
2023-02-27T06:47:14.654Z,0.33
2023-02-27T06:51:25.569Z,0.33
2023-02-27T06:55:20.651Z,0.38
2023-02-27T06:59:38.630Z,0.42
2023-02-27T07:04:01.249Z,0.47
2023-02-27T07:08:16.453Z,0.55
2023-02-27T07:12:11.983Z,0.58
2023-02-27T07:16:31.640Z,0.65
2023-02-27T07:20:59.887Z,0.68
2023-02-27T07:25:23.108Z,0.78
2023-02-27T07:43:22.848Z,1.28
2023-02-27T07:47:52.102Z,1.33
2023-02-27T07:52:11.543Z,1.47
2023-02-27T07:56:41.935Z,1.59
2023-02-27T08:14:03.977Z,2.09
2023-02-27T08:18:34.796Z,2.17
2023-02-27T08:23:04.010Z,2.29
2023-02-27T08:27:14.891Z,2.47
2023-02-27T09:00:12.646Z,3.37
2023-02-27T09:04:33.577Z,3.41
2023-02-27T09:08:55.540Z,3.55
2023-02-27T09:25:31.872Z,3.77
2023-02-27T09:30:00.785Z,3.88
2023-02-27T09:34:30.114Z,4.01
2023-02-27T09:38:59.471Z,4.28
2023-02-27T09:43:28.794Z,4.42
2023-02-27T09:48:05.508Z,4.44
2023-02-27T10:07:30.500Z,5.11
2023-02-27T10:11:37.002Z,5.13
2023-02-27T10:16:06.699Z,5.35
2023-02-27T10:37:20.320Z,6.10
2023-02-27T10:41:31.050Z,6.04
2023-02-27T10:46:00.412Z,6.01
2023-02-27T10:50:30.908Z,5.65
2023-02-27T10:55:01.789Z,5.51
2023-02-27T10:59:13.852Z,5.47
2023-02-27T11:16:18.187Z,6.25
2023-02-27T11:20:47.880Z,6.07
2023-02-27T11:24:58.717Z,5.81
2023-02-27T11:29:48.895Z,5.65
2023-02-27T11:34:08.586Z,5.60
2023-02-27T11:37:50.390Z,5.64
2023-02-27T11:42:00.187Z,5.76
2023-02-27T12:50:08.503Z,6.41
2023-02-27T12:54:14.312Z,6.42
2023-02-27T12:57:43.288Z,6.72
2023-02-27T13:01:15.723Z,7.16
2023-02-27T13:05:04.063Z,7.43
2023-02-27T13:09:40.707Z,7.28
2023-02-27T13:14:15.105Z,7.09
2023-02-27T13:18:24.529Z,6.95
2023-02-27T13:22:37.098Z,6.86
2023-02-27T13:26:35.379Z,6.73
2023-02-27T13:34:55.766Z,6.40
2023-02-27T13:39:35.100Z,6.24
2023-02-27T13:43:51.492Z,6.19
2023-02-27T13:48:30.118Z,6.76
2023-02-27T13:52:52.277Z,6.81
2023-02-27T13:56:52.410Z,6.96
2023-02-27T14:22:55.109Z,6.39
2023-02-27T14:43:23.961Z,6.16
2023-02-27T14:47:52.763Z,5.94
2023-02-27T14:52:21.560Z,5.74
2023-02-27T14:56:41.130Z,5.59
2023-02-27T15:09:44.905Z,5.43
2023-02-27T15:39:49.360Z,4.99
2023-02-27T15:43:55.148Z,4.86
2023-02-27T15:48:18.150Z,4.76
2023-02-27T15:52:14.190Z,4.69
2023-02-27T15:56:31.987Z,4.62
2023-02-27T16:01:02.207Z,4.55
2023-02-27T16:05:21.615Z,4.49
2023-02-27T16:20:30.396Z,4.23
2023-02-27T16:24:59.250Z,4.14
2023-02-27T16:29:31.759Z,4.06
2023-02-27T16:33:54.785Z,3.99
2023-02-27T17:03:41.921Z,3.85
2023-02-27T17:08:11.167Z,3.76
2023-02-27T17:37:56.058Z,3.05
2023-02-27T17:42:12.490Z,2.98
2023-02-27T17:46:29.948Z,2.89
2023-02-27T17:51:04.336Z,2.75
2023-02-27T18:12:32.922Z,2.30
2023-02-27T18:17:02.307Z,2.17
2023-02-27T18:21:43.670Z,2.09
2023-02-27T18:43:10.619Z,1.76
2023-02-27T18:47:02.850Z,1.64
2023-02-27T18:55:12.085Z,1.53
2023-02-27T18:59:41.606Z,1.43
2023-02-27T19:04:04.933Z,1.34
2023-02-27T19:29:06.770Z,0.87
2023-02-27T19:33:34.299Z,0.77
2023-02-27T19:37:48.345Z,0.69
2023-02-27T19:42:17.352Z,0.61
2023-02-27T19:46:41.161Z,0.52
2023-02-27T20:28:57.020Z,-0.09
2023-02-27T20:33:19.132Z,-0.15
2023-02-27T20:37:47.204Z,-0.22
2023-02-27T20:42:19.432Z,-0.29
2023-02-27T20:46:49.592Z,-0.36
2023-02-27T20:51:10.193Z,-0.43
2023-02-27T21:12:57.634Z,-0.63
2023-02-27T21:17:27.382Z,-0.69
2023-02-27T21:39:03.357Z,-0.90
2023-02-27T21:43:33.405Z,-0.98
2023-02-27T21:48:02.912Z,-1.05
2023-02-27T21:52:33.492Z,-1.11
2023-02-27T22:16:38.346Z,-1.34
2023-02-27T22:21:08.852Z,-1.44
2023-02-27T22:47:15.008Z,-1.73
2023-02-27T22:51:40.402Z,-1.78
2023-02-27T22:56:09.864Z,-1.83
2023-02-27T23:00:38.582Z,-1.86
2023-02-27T23:05:06.291Z,-1.87
2023-02-27T23:13:30.981Z,-1.86
2023-02-27T23:17:57.897Z,-1.89
2023-02-27T23:22:31.282Z,-1.92
2023-02-27T23:43:51.039Z,-2.03
2023-02-27T23:48:12.668Z,-2.08
